SBRJFQMA

Guest
Details From SBRJ - Santos-dumont
To FQMA - Maputo
Flight Number -
Tags Generated
Created
Modified
Stats Distance 4,091 nm / 7,577 km
Max Altitude 0 ft / 0 m
Waypoints 4
Social Downloads 0
Likes 0
Share VATSIM

Download

Looking for another format? Having issues loading an existing format? Contact us
Advertisement - Login to hide

Notes

Generated

Route

SBRJ OLAVA VMA FQMA

ID Type Via Altitude Latitude Longitude Leg Dist Tot Dist Heading (true) Name
O SBRJ APT - 0 ft / 0 m -22.91603˚ -43.16328˚ - 0 nm - -
OLAVA FIX - 0 ft / 0 m -26.81761˚ 28.62908˚ 3866 nm 3866 nm 110° / 76° -
VMA VOR - 0 ft / 0 m -25.86891˚ 32.60501˚ 221 nm 4087 nm 76° / 74° MAPUTO VOR-DME
O FQMA APT - 0 ft / 0 m -25.92119˚ 32.56636˚ 3 nm 4091 nm 214° / 214° -

Altitude Profile

Advertisement - Login to hide

Weather


0- 5 10 15 20 25 30 35+ Temperature / ° C

Clouds and Precipitation
Forecast for 2018-05-21 18:00 UTC. Updated 4 hours ago

Ground ~20,000 ft ~40,000 ft Winds

SBRJ

Details ICAO SBRJ (SDU)
Name Santos-Dumont
Region Brazil
Timezone Unknown (UTC+0.0)
Stats Elevation 11 ft / 3 m (AMSL)
Location -22.910460° -43.163133°
Runways 2
Magnetic Variation 22.825° W

METAR

SBRJ 212000Z 17009KT CAVOK 22/12 Q1016

Decode

TAF

TAF SBRJ 211430Z 2118/2206 20015KT CAVOK TX24/2118Z TN17/2206Z BECMG 2119/2121 17010KT BECMG 2122/2124 31005KT BECMG 2204/2206 35005KT 8000 NSC RMK PGS

Decode

Departure Runways

ID Width Length Bearing (true) Bearing (mag) Surface Threshold Offset Overrun Length
02L 98 ft / 30 m 4,154 ft / 1,266 m 358.02° 20.84° Asphalt 0 ft / 0 m 80 ft / 24 m
02R 138 ft / 42 m 4,361 ft / 1,329 m 358.01° 20.83° Asphalt 0 ft / 0 m 80 ft / 24 m
20L 138 ft / 42 m 4,361 ft / 1,329 m 178.01° 200.83° Asphalt 0 ft / 0 m 80 ft / 24 m
20R 98 ft / 30 m 4,154 ft / 1,266 m 178.02° 200.84° Asphalt 0 ft / 0 m 95 ft / 29 m

FQMA

Details ICAO FQMA (MPM)
Name MAPUTO
Region Mozambique
Timezone Africa/Maputo (UTC+2.0)
Stats Elevation 145 ft / 44 m (AMSL)
Location -25.915529° 32.576901°
Runways 2
Magnetic Variation 20.246° W

METAR

FQMA 212000Z 36005KT CAVOK 23/18 Q1015 NOSIG

Decode

TAF

TAF FQMA 211000Z 2112/2218 36010KT CAVOK BECMG 2118/2120 VRB03KT BECMG 2200/2202 35008KT BECMG 2212/2214 06008KT TN18/2203Z TX31/2113Z

Decode

Destination Runways

ID Width Length Bearing (true) Bearing (mag) Surface Threshold Offset Overrun Length
05 148 ft / 45 m 12,063 ft / 3,677 m 28.75° 49.00° Asphalt 0 ft / 0 m 238 ft / 73 m
10 148 ft / 45 m 5,560 ft / 1,695 m 86.29° 106.54° Asphalt 0 ft / 0 m 0 ft / 0 m
23 148 ft / 45 m 12,063 ft / 3,677 m 208.74° 228.99° Asphalt 0 ft / 0 m 984 ft / 300 m
28 148 ft / 45 m 5,560 ft / 1,695 m 266.28° 286.53° Asphalt 0 ft / 0 m 0 ft / 0 m

Approach Navaids

Runway Type Ident Frequency Range Bearing (true) Bearing (mag) Slope Elevation
23 Localiser IMA 110.30 MHz 18 nm / 33 km 208.75° 229.00° - 145 ft / 44 m (AMSL)
23 Glidescope IMA 110.30 MHz 10 nm / 19 km 208.75° 228.99° 3.00° 145 ft / 44 m (AMSL)